Página principal
METAR-TAF:

METAR-TAF

Aeroportos :

Aeroporto Internacional de Harare

Harare, Zimbabwe

latitude: 17-55S, longitude: 031-08E, altura: 1479 m

Observação actual do tempo

O boletim foi feito há 3 horas e 36 minutos, às 12:00 UTC
Vento 7 kt de es-sudeste, variando entre este e su-sudeste
Temperatura 27°C
Humidade 15%
Pressão 1025 hPa
Visibilidade 10 km ou mais
sem nuvens abaixo de 1500 metros e sem cumulonimbus

METAR: FVHA 161200Z 12007KT 080V160 CAVOK 27/M02 Q1025 NOSIG

Hora: 17:36 (15:36 UTC)

Previsão

O boletim foi feito há 5 horas e 36 minutos, às 10:00 UTC
Previsão válida de 16 às 12 UTC a 17 às 18 UTC
Vento 8 kt de es-nordeste
Visibilidade 10 km ou mais
sem nuvens abaixo de 1500 metros e sem cumulonimbus

TAF: FVHA 161000Z 1612/1718 06008KT CAVOK

Observações e previsões do tempo de mais de 4000 aeroportos (mensagens METAR e TAF).

As estações disponíveis são os pontos amarelos e vermelhos sobre o mapa.

Mova o rato sobre o mapa para ver o nome da estação.

Depois clique no ponto para visualizar as observações e previsões meteorológicas.

Para alterar o mapa : clique nos botões verdes com uma cruz preta para aumentar o zoom; no botão verde com uma pitada de zoom; ou nas setas verdes para mapas adjacentes.


METAR-TAF: